Time;durP1;ratioP1;P1;durP2;ratioP2;P2;SDS_P1;SDS_P2;PMS_P1;PMS_P2;Temp;Humidity;BMP_temperature;BMP_pressure;BME280_temperature;BME280_humidity;BME280_pressure;Samples;Min_cycle;Max_cycle;Signal;HPM_P1;HPM_P2
2022/04/21 00:01:02;;;;;;;;;;;;;;;7.30;50.51;99298.31;4403906;32;34016;-89
2022/04/21 00:03:31;;;;;;;;;;;;;;;7.45;50.03;99296.50;4403926;32;34587;-90
2022/04/21 00:05:59;;;;;;;;;;;;;;;7.39;50.32;99287.94;4403652;32;33584;-92
2022/04/21 00:08:29;;;;;;;;;;;;;;;7.32;50.62;99287.16;4407695;32;35106;-90
2022/04/21 00:10:58;;;;;;;;;;;;;;;7.00;51.60;99289.91;4403605;32;32795;-92
2022/04/21 00:13:26;;;;;;;;;;;;;;;7.25;50.95;99290.63;4403739;32;34318;-89
2022/04/21 00:15:55;;;;;;;;;;;;;;;7.34;50.80;99290.56;4403682;32;34028;-90
2022/04/21 00:18:23;;;;;;;;;;;;;;;7.33;50.86;99285.41;4403137;32;34696;-93
2022/04/21 00:20:52;;;;;;;;;;;;;;;7.33;50.52;99291.44;4405606;32;33431;-89
2022/04/21 00:23:28;;;;;;;;;;;;;;;6.83;52.20;99284.81;4392098;32;34014;-91
2022/04/21 00:26:00;;;;;;;;;;;;;;;7.12;51.51;99289.81;4388146;32;33911;-90
2022/04/21 00:28:29;;;;;;;;;;;;;;;7.30;50.92;99291.47;4399964;32;34554;-90
2022/04/21 00:30:58;;;;;;;;;;;;;;;7.08;51.45;99292.44;4402884;32;33813;-89
2022/04/21 00:33:26;;;;;;;;;;;;;;;7.25;51.09;99293.22;4403615;32;33924;-90
2022/04/21 00:35:54;;;;;;;;;;;;;;;7.33;50.57;99288.00;4407831;32;35582;-91
2022/04/21 00:38:23;;;;;;;;;;;;;;;7.25;50.86;99277.72;4403233;32;34264;-90
2022/04/21 00:40:51;;;;;;;;;;;;;;;7.23;50.88;99279.47;4395208;32;34007;-90
2022/04/21 00:43:22;;;;;;;;;;;;;;;7.03;51.40;99280.44;4388506;32;32067;-92
2022/04/21 00:45:52;;;;;;;;;;;;;;;7.19;51.23;99282.91;4402910;32;33928;-92
2022/04/21 00:48:20;;;;;;;;;;;;;;;7.33;50.64;99285.41;4407219;32;33863;-91
2022/04/21 00:50:49;;;;;;;;;;;;;;;7.23;50.79;99279.47;4387614;32;33113;-91
2022/04/21 00:53:18;;;;;;;;;;;;;;;7.08;51.28;99287.25;4388044;32;33948;-91
2022/04/21 00:55:46;;;;;;;;;;;;;;;7.03;51.47;99276.97;4387633;32;34763;-90
2022/04/21 00:58:14;;;;;;;;;;;;;;;7.21;51.08;99279.47;4387792;32;32808;-91
2022/04/21 01:00:44;;;;;;;;;;;;;;;7.15;51.12;99281.22;4406013;32;33425;-90
2022/04/21 01:03:13;;;;;;;;;;;;;;;7.12;51.42;99276.94;4391051;32;33950;-91
2022/04/21 01:05:41;;;;;;;;;;;;;;;7.12;51.59;99274.34;4402934;32;34167;-91
2022/04/21 01:08:10;;;;;;;;;;;;;;;7.16;51.56;99272.62;4402825;32;34346;-89
2022/04/21 01:10:39;;;;;;;;;;;;;;;7.30;51.23;99280.25;4388145;32;32339;-90
2022/04/21 01:13:09;;;;;;;;;;;;;;;7.20;51.33;99275.19;4403241;32;33808;-94
2022/04/21 01:15:37;;;;;;;;;;;;;;;7.17;51.41;99280.34;4408252;32;34043;-90
2022/04/21 01:18:07;;;;;;;;;;;;;;;6.76;52.44;99278.81;4402266;32;35024;-90
2022/04/21 01:20:37;;;;;;;;;;;;;;;6.96;51.90;99271.00;4401509;32;33417;-89
2022/04/21 01:23:06;;;;;;;;;;;;;;;7.00;51.79;99272.69;4387357;32;33884;-90
2022/04/21 01:25:40;;;;;;;;;;;;;;;6.77;52.57;99272.81;4387018;32;33961;-89
2022/04/21 01:28:09;;;;;;;;;;;;;;;6.75;52.51;99266.81;4391754;32;34383;-90
2022/04/21 01:30:38;;;;;;;;;;;;;;;6.61;52.63;99273.75;4400281;32;33249;-91
2022/04/21 01:33:07;;;;;;;;;;;;;;;6.70;52.24;99272.88;4403663;32;34613;-90
2022/04/21 01:35:37;;;;;;;;;;;;;;;6.80;51.81;99267.66;4401951;32;34601;-92
2022/04/21 01:41:11;;;;;;;;;;;;;;;6.50;52.79;99265.19;4390976;32;33563;-91
2022/04/21 01:43:40;;;;;;;;;;;;;;;6.61;52.38;99271.16;4392178;32;33804;-89
2022/04/21 01:46:11;;;;;;;;;;;;;;;6.40;53.09;99266.94;4391817;32;34186;-90
2022/04/21 01:48:40;;;;;;;;;;;;;;;6.19;53.67;99262.72;4402265;32;33452;-89
2022/04/21 01:51:09;;;;;;;;;;;;;;;6.35;53.53;99261.78;4402221;32;34121;-91
2022/04/21 01:53:38;;;;;;;;;;;;;;;6.37;53.44;99252.34;4401875;32;32788;-90
2022/04/21 01:56:07;;;;;;;;;;;;;;;6.34;53.52;99257.53;4402070;32;34291;-89
2022/04/21 01:58:35;;;;;;;;;;;;;;;6.26;53.72;99258.38;4391536;32;34959;-90
2022/04/21 02:01:04;;;;;;;;;;;;;;;6.25;53.77;99257.53;4386863;32;33024;-91
2022/04/21 02:03:32;;;;;;;;;;;;;;;6.43;53.18;99259.22;4386735;32;34725;-90
2022/04/21 02:06:01;;;;;;;;;;;;;;;6.47;53.31;99248.00;4386461;32;34984;-90
2022/04/21 02:08:31;;;;;;;;;;;;;;;6.56;53.10;99254.87;4401211;32;34764;-92
2022/04/21 02:11:00;;;;;;;;;;;;;;;6.31;53.90;99254.09;4406077;32;33255;-90
2022/04/21 02:13:28;;;;;;;;;;;;;;;6.49;53.84;99251.44;4401762;32;34003;-90
2022/04/21 02:15:57;;;;;;;;;;;;;;;6.35;54.37;99248.91;4401560;32;34308;-90
2022/04/21 02:18:25;;;;;;;;;;;;;;;6.35;54.54;99242.91;4401499;32;33935;-89
2022/04/21 02:20:57;;;;;;;;;;;;;;;6.49;54.02;99242.88;4399877;32;33421;-93
2022/04/21 02:23:26;;;;;;;;;;;;;;;6.49;53.81;99241.13;4393280;32;33649;-91
2022/04/21 02:25:56;;;;;;;;;;;;;;;6.50;53.99;99240.31;4390763;32;33774;-91
2022/04/21 02:28:25;;;;;;;;;;;;;;;6.56;53.67;99240.25;4403765;32;34977;-92
2022/04/21 02:30:53;;;;;;;;;;;;;;;6.71;53.13;99241.91;4403873;32;33856;-92
2022/04/21 02:33:22;;;;;;;;;;;;;;;6.52;53.65;99242.84;4403724;32;34827;-91
2022/04/21 02:35:54;;;;;;;;;;;;;;;6.48;53.95;99239.44;4407936;32;34606;-89
2022/04/21 02:38:23;;;;;;;;;;;;;;;6.47;54.16;99240.28;4408160;32;33604;-90
2022/04/21 02:40:51;;;;;;;;;;;;;;;6.41;54.45;99237.75;4392287;32;33769;-89
2022/04/21 02:43:21;;;;;;;;;;;;;;;6.56;53.98;99237.69;4395720;32;34432;-90
2022/04/21 02:45:50;;;;;;;;;;;;;;;6.72;53.41;99235.91;4403750;32;33945;-91
2022/04/21 02:48:18;;;;;;;;;;;;;;;6.61;53.56;99246.25;4402916;32;34021;-91
2022/04/21 02:50:48;;;;;;;;;;;;;;;6.48;54.29;99233.44;4408530;32;32988;-90
2022/04/21 02:53:17;;;;;;;;;;;;;;;6.56;54.17;99239.41;4403461;32;34299;-92
2022/04/21 02:58:33;;;;;;;;;;;;;;;6.40;54.55;99243.75;4403712;32;34462;-90
2022/04/21 03:01:01;;;;;;;;;;;;;;;6.55;54.43;99241.13;4404284;32;33321;-90
2022/04/21 03:03:33;;;;;;;;;;;;;;;6.54;54.55;99234.25;4404574;32;33889;-89
2022/04/21 03:06:01;;;;;;;;;;;;;;;6.27;55.15;99234.34;4408316;32;34913;-90
2022/04/21 03:08:30;;;;;;;;;;;;;;;6.31;54.99;99233.50;4403225;32;33593;-90
2022/04/21 03:11:01;;;;;;;;;;;;;;;6.49;54.25;99233.41;4403390;32;33316;-90
2022/04/21 03:13:30;;;;;;;;;;;;;;;6.44;54.43;99240.31;4403497;32;35631;-90
2022/04/21 03:15:59;;;;;;;;;;;;;;;6.35;54.61;99224.88;4403717;32;34891;-92
2022/04/21 03:18:28;;;;;;;;;;;;;;;6.18;55.28;99233.50;4407657;32;34343;-89
2022/04/21 03:26:32;;;;;;;;;;;;;;;6.43;54.18;99237.72;4403194;32;33784;-89
2022/04/21 03:29:01;;;;;;;;;;;;;;;6.53;53.75;99232.53;4403741;32;34451;-92
2022/04/21 03:31:31;;;;;;;;;;;;;;;6.53;53.83;99236.84;4402976;32;33954;-91
2022/04/21 03:34:00;;;;;;;;;;;;;;;6.55;53.92;99238.56;4407819;32;33523;-93
2022/04/21 03:36:28;;;;;;;;;;;;;;;6.54;53.72;99241.13;4402833;32;34451;-90
2022/04/21 03:38:56;;;;;;;;;;;;;;;6.47;53.76;99234.28;4388411;32;34153;-93
2022/04/21 03:41:25;;;;;;;;;;;;;;;6.55;53.24;99241.13;4388293;32;32913;-90
2022/04/21 03:43:56;;;;;;;;;;;;;;;6.51;53.43;99246.31;4388327;32;34696;-91
2022/04/21 03:46:30;;;;;;;;;;;;;;;6.49;53.42;99242.88;4391818;32;34908;-91
2022/04/21 03:49:01;;;;;;;;;;;;;;;6.44;53.52;99234.31;4396087;32;34743;-93
2022/04/21 03:51:31;;;;;;;;;;;;;;;6.32;53.99;99241.19;4403273;32;33383;-90
2022/04/21 03:53:59;;;;;;;;;;;;;;;6.34;53.91;99236.06;4403113;32;33517;-90
2022/04/21 03:56:28;;;;;;;;;;;;;;;6.33;53.85;99235.22;4403328;32;35099;-90
2022/04/21 03:58:56;;;;;;;;;;;;;;;6.19;54.30;99232.66;4403186;32;34173;-91
2022/04/21 04:01:25;;;;;;;;;;;;;;;6.36;53.96;99244.63;4407712;32;32961;-89
2022/04/21 04:03:54;;;;;;;;;;;;;;;6.29;53.99;99245.53;4389021;32;33955;-91
2022/04/21 04:11:56;;;;;;;;;;;;;;;6.40;53.89;99252.34;4403341;32;33544;-89
2022/04/21 04:14:25;;;;;;;;;;;;;;;6.35;54.15;99256.63;4403174;32;33868;-89
2022/04/21 04:16:54;;;;;;;;;;;;;;;6.32;54.35;99250.66;4407602;32;34245;-92
2022/04/21 04:19:22;;;;;;;;;;;;;;;6.44;54.09;99260.91;4402981;32;34023;-91
2022/04/21 04:21:52;;;;;;;;;;;;;;;6.16;54.75;99263.59;4395169;32;34138;-88
2022/04/21 04:24:21;;;;;;;;;;;;;;;6.45;54.40;99254.03;4387521;32;34588;-92
2022/04/21 04:26:49;;;;;;;;;;;;;;;6.55;53.73;99254.03;4400749;32;34697;-88
2022/04/21 04:29:22;;;;;;;;;;;;;;;6.54;53.88;99254.00;4407510;32;33689;-91
2022/04/21 04:31:52;;;;;;;;;;;;;;;6.63;52.74;99266.88;4408482;32;33197;-88
2022/04/21 04:34:21;;;;;;;;;;;;;;;6.52;53.45;99266.03;4403152;32;34199;-88
2022/04/21 04:36:49;;;;;;;;;;;;;;;6.72;53.15;99268.56;4402619;32;33811;-89
2022/04/21 04:39:19;;;;;;;;;;;;;;;6.83;52.85;99270.19;4401228;32;33993;-88
2022/04/21 04:44:33;;;;;;;;;;;;;;;6.87;53.49;99270.22;4406658;32;34551;-89
2022/04/21 04:47:01;;;;;;;;;;;;;;;7.03;52.85;99276.97;4402585;32;34481;-90
2022/04/21 04:49:29;;;;;;;;;;;;;;;7.06;52.96;99276.97;4402330;32;34094;-91
2022/04/21 04:51:58;;;;;;;;;;;;;;;7.36;52.18;99277.66;4402893;32;32841;-89
2022/04/21 04:54:29;;;;;;;;;;;;;;;7.35;52.92;99276.78;4392518;32;34753;-88
2022/04/21 04:56:57;;;;;;;;;;;;;;;7.55;52.42;99278.38;4404795;32;34052;-89
2022/04/21 04:59:27;;;;;;;;;;;;;;;7.56;52.04;99268.03;4405438;32;34587;-89
2022/04/21 05:01:56;;;;;;;;;;;;;;;7.68;51.91;99274.81;4392321;32;33165;-92
2022/04/21 05:04:24;;;;;;;;;;;;;;;8.34;48.99;99275.06;4395472;32;34032;-89
2022/04/21 05:06:53;;;;;;;;;;;;;;;8.58;48.01;99277.41;4395058;32;34140;-90
2022/04/21 05:09:26;;;;;;;;;;;;;;;8.72;48.05;99278.09;4387299;32;34179;-89
2022/04/21 05:11:57;;;;;;;;;;;;;;;9.28;46.24;99276.50;4399396;32;33337;-91
2022/04/21 05:14:26;;;;;;;;;;;;;;;9.58;45.31;99274.31;4373746;32;786148;-88
2022/04/21 05:16:54;;;;;;;;;;;;;;;10.23;43.86;99269.72;4399760;32;34893;-89
2022/04/21 05:19:23;;;;;;;;;;;;;;;10.80;42.86;99278.16;4392533;32;33824;-91
2022/04/21 05:21:52;;;;;;;;;;;;;;;11.35;41.69;99276.97;4386373;32;34033;-89
2022/04/21 05:24:20;;;;;;;;;;;;;;;12.08;40.62;99270.88;4394463;32;34944;-89
2022/04/21 05:26:49;;;;;;;;;;;;;;;12.67;39.04;99276.22;4399922;32;34280;-88
2022/04/21 05:32:06;;;;;;;;;;;;;;;13.07;37.91;99262.06;4390301;32;33710;-89
2022/04/21 05:34:35;;;;;;;;;;;;;;;12.87;38.20;99267.00;4396340;32;34794;-91
2022/04/21 05:37:04;;;;;;;;;;;;;;;13.09;38.41;99268.03;4389161;32;33864;-90
2022/04/21 05:39:33;;;;;;;;;;;;;;;13.36;37.48;99271.63;4403557;32;34106;-88
2022/04/21 05:42:02;;;;;;;;;;;;;;;13.35;37.00;99269.03;4387175;32;33606;-91
2022/04/21 05:44:32;;;;;;;;;;;;;;;13.11;36.89;99255.00;4386868;32;34222;-88
2022/04/21 05:47:01;;;;;;;;;;;;;;;12.51;38.08;99259.34;4387187;32;34397;-89
2022/04/21 05:49:30;;;;;;;;;;;;;;;12.16;38.92;99256.81;4398640;32;34881;-88
2022/04/21 05:51:59;;;;;;;;;;;;;;;11.92;40.00;99267.84;4404940;32;33204;-87
2022/04/21 05:54:28;;;;;;;;;;;;;;;11.85;39.83;99261.91;4399943;32;33745;-91
2022/04/21 05:57:00;;;;;;;;;;;;;;;11.74;40.32;99271.72;4387830;32;34834;-89
2022/04/21 05:59:29;;;;;;;;;;;;;;;11.56;40.80;99272.16;4388631;32;33871;-90
2022/04/21 06:01:59;;;;;;;;;;;;;;;11.52;41.06;99269.66;4388856;32;32994;-90
2022/04/21 06:04:28;;;;;;;;;;;;;;;11.37;41.71;99267.41;4391756;32;33118;-89
2022/04/21 06:06:57;;;;;;;;;;;;;;;11.34;41.85;99267.47;4408422;32;33757;-90
2022/04/21 06:09:25;;;;;;;;;;;;;;;11.50;40.92;99266.25;4405529;32;33844;-92
2022/04/21 06:11:54;;;;;;;;;;;;;;;11.59;40.02;99266.91;4404124;32;33400;-89
2022/04/21 06:14:24;;;;;;;;;;;;;;;11.70;39.92;99267.50;4400980;32;34565;-89
2022/04/21 06:16:52;;;;;;;;;;;;;;;11.40;41.09;99266.47;4389723;32;34160;-89
2022/04/21 06:19:22;;;;;;;;;;;;;;;11.67;41.11;99267.56;4394709;32;34830;-88
2022/04/21 06:21:52;;;;;;;;;;;;;;;11.66;41.22;99268.47;4398013;32;34255;-88
2022/04/21 06:24:21;;;;;;;;;;;;;;;11.74;41.38;99270.00;4400117;32;33675;-89
2022/04/21 06:26:49;;;;;;;;;;;;;;;11.89;40.75;99265.34;4388787;32;33971;-91
2022/04/21 06:29:18;;;;;;;;;;;;;;;11.61;41.56;99265.97;4388074;32;33843;-90
2022/04/21 06:31:46;;;;;;;;;;;;;;;11.90;40.43;99267.03;4394852;32;32941;-90
2022/04/21 06:34:16;;;;;;;;;;;;;;;11.80;41.26;99260.31;4400931;32;34908;-88
2022/04/21 06:36:45;;;;;;;;;;;;;;;12.03;40.41;99257.16;4401150;32;34471;-89
2022/04/21 06:39:14;;;;;;;;;;;;;;;11.97;40.75;99254.72;4402037;32;34046;-88
2022/04/21 06:41:43;;;;;;;;;;;;;;;12.18;40.82;99259.38;4395172;32;33499;-90
2022/04/21 06:49:53;;;;;;;;;;;;;;;12.47;40.25;99248.16;4393186;32;34137;-89
2022/04/21 06:52:23;;;;;;;;;;;;;;;12.59;40.40;99241.78;4396038;32;33317;-89
2022/04/21 06:54:51;;;;;;;;;;;;;;;12.97;39.17;99250.19;4391425;32;34025;-90
2022/04/21 06:57:20;;;;;;;;;;;;;;;12.88;38.68;99243.53;4388429;32;34139;-92
2022/04/21 06:59:49;;;;;;;;;;;;;;;13.01;38.87;99244.00;4387908;32;34195;-91
2022/04/21 07:02:18;;;;;;;;;;;;;;;13.15;38.39;99247.03;4393013;32;33077;-89
2022/04/21 07:04:46;;;;;;;;;;;;;;;13.00;38.65;99248.38;4387154;32;34284;-90
2022/04/21 07:07:15;;;;;;;;;;;;;;;13.18;38.24;99241.72;4388836;32;34082;-91
2022/04/21 07:09:44;;;;;;;;;;;;;;;13.32;37.42;99237.88;4387900;32;34113;-90
2022/04/21 07:12:13;;;;;;;;;;;;;;;12.93;38.24;99240.78;4388084;32;34074;-89
2022/04/21 07:14:41;;;;;;;;;;;;;;;13.61;37.46;99236.94;4395312;32;34775;-91
2022/04/21 07:17:10;;;;;;;;;;;;;;;13.58;36.85;99240.50;4394234;32;34281;-88
2022/04/21 07:19:38;;;;;;;;;;;;;;;13.97;36.03;99242.69;4392087;32;34450;-89
2022/04/21 07:22:08;;;;;;;;;;;;;;;13.83;36.83;99240.53;4403344;32;32979;-90
2022/04/21 07:24:36;;;;;;;;;;;;;;;14.01;35.72;99241.69;4403162;32;34061;-88
2022/04/21 07:27:12;;;;;;;;;;;;;;;13.97;36.05;99237.47;4394643;32;34253;-92
2022/04/21 07:29:43;;;;;;;;;;;;;;;14.21;36.41;99238.37;4392833;32;34882;-91
2022/04/21 07:32:12;;;;;;;;;;;;;;;14.33;35.83;99238.81;4387895;32;33584;-91
2022/04/21 07:34:42;;;;;;;;;;;;;;;14.57;36.54;99244.94;4388259;32;34746;-89
2022/04/21 07:37:11;;;;;;;;;;;;;;;14.73;36.57;99238.25;4391906;32;34236;-88
2022/04/21 07:39:42;;;;;;;;;;;;;;;14.72;35.26;99240.03;4387251;32;33818;-88
2022/04/21 07:42:14;;;;;;;;;;;;;;;14.41;33.99;99237.66;4393020;32;33318;-89
2022/04/21 07:44:43;;;;;;;;;;;;;;;14.72;33.79;99247.00;4387037;32;34035;-90
2022/04/21 07:47:12;;;;;;;;;;;;;;;14.94;33.19;99234.00;4398325;32;32815;-88
2022/04/21 07:49:46;;;;;;;;;;;;;;;15.00;32.30;99235.50;4403449;32;33594;-89
2022/04/21 07:55:15;;;;;;;;;;;;;;;15.02;33.94;99242.38;4387744;32;34714;-90
2022/04/21 07:57:45;;;;;;;;;;;;;;;14.93;33.49;99238.37;4392829;32;33861;-88
2022/04/21 08:00:14;;;;;;;;;;;;;;;15.06;32.72;99238.75;4387050;32;35188;-89
2022/04/21 08:02:44;;;;;;;;;;;;;;;15.07;33.33;99239.59;4388133;32;33891;-91
2022/04/21 08:05:13;;;;;;;;;;;;;;;15.19;32.68;99239.09;4388552;32;34713;-89
2022/04/21 08:07:42;;;;;;;;;;;;;;;15.15;32.76;99237.53;4402316;32;34562;-88
2022/04/21 08:10:11;;;;;;;;;;;;;;;15.33;31.43;99243.78;4405897;32;35591;-91
2022/04/21 08:12:40;;;;;;;;;;;;;;;15.11;31.42;99233.34;4407993;32;33387;-89
2022/04/21 08:15:10;;;;;;;;;;;;;;;15.35;31.86;99240.19;4401376;32;34764;-89
2022/04/21 08:17:39;;;;;;;;;;;;;;;15.09;32.04;99240.38;4391752;32;33951;-90
2022/04/21 08:20:08;;;;;;;;;;;;;;;15.01;32.75;99245.91;4400509;32;34219;-90
2022/04/21 08:22:37;;;;;;;;;;;;;;;15.20;32.30;99246.03;4394086;32;33522;-89
2022/04/21 08:33:26;;;;;;;;;;;;;;;15.25;31.21;99236.25;4329649;33;33006;-91
2022/04/21 08:35:58;;;;;;;;;;;;;;;15.33;32.26;99249.03;4335098;33;34447;-93
2022/04/21 08:38:27;;;;;;;;;;;;;;;15.29;32.11;99239.59;4342367;33;33850;-92
2022/04/21 08:40:56;;;;;;;;;;;;;;;15.38;32.94;99238.37;4326720;33;34043;-92
2022/04/21 08:43:25;;;;;;;;;;;;;;;15.50;31.86;99237.88;4330729;33;33388;-91
2022/04/21 08:45:55;;;;;;;;;;;;;;;15.54;32.42;99240.31;4326316;33;34872;-91
2022/04/21 08:48:24;;;;;;;;;;;;;;;15.57;32.78;99250.62;4325957;33;32897;-90
2022/04/21 08:50:52;;;;;;;;;;;;;;;15.87;32.06;99244.25;4326579;33;33309;-92
2022/04/21 08:53:24;;;;;;;;;;;;;;;15.84;30.99;99242.59;4340476;33;33083;-91
2022/04/21 08:55:52;;;;;;;;;;;;;;;15.72;31.08;99246.56;4345177;33;34204;-90
2022/04/21 08:58:21;;;;;;;;;;;;;;;15.84;31.44;99242.59;4341354;33;33898;-92
2022/04/21 09:00:53;;;;;;;;;;;;;;;16.04;31.01;99254.84;4340668;33;33850;-91
2022/04/21 09:03:23;;;;;;;;;;;;;;;16.29;32.78;99245.94;4340502;33;33120;-92
2022/04/21 09:05:52;;;;;;;;;;;;;;;16.20;30.86;99241.94;4341155;33;35757;-90
2022/04/21 09:08:21;;;;;;;;;;;;;;;16.33;30.19;99239.63;4345018;33;34629;-91
2022/04/21 09:11:02;;;;;;;;;;;;;;;16.58;30.11;99242.88;4380380;32;34815;-89
2022/04/21 09:13:33;;;;;;;;;;;;;;;16.67;30.25;99238.13;4401752;32;34087;-90
2022/04/21 09:16:02;;;;;;;;;;;;;;;16.64;29.55;99237.34;4401856;32;34018;-93
2022/04/21 09:18:39;;;;;;;;;;;;;;;16.78;29.35;99244.63;4402394;32;34254;-91
2022/04/21 09:21:08;;;;;;;;;;;;;;;16.92;28.58;99240.53;4402469;32;34150;-89
2022/04/21 09:23:37;;;;;;;;;;;;;;;16.71;29.37;99247.56;4407099;32;33025;-89
2022/04/21 09:26:07;;;;;;;;;;;;;;;16.32;30.51;99248.44;4401877;32;33984;-92
2022/04/21 09:28:36;;;;;;;;;;;;;;;16.24;30.60;99245.28;4388478;32;32809;-91
2022/04/21 09:31:06;;;;;;;;;;;;;;;16.58;30.54;99245.50;4403547;32;33895;-92
2022/04/21 09:33:35;;;;;;;;;;;;;;;16.58;29.91;99242.03;4404087;32;32574;-90
2022/04/21 09:36:06;;;;;;;;;;;;;;;16.89;31.39;99243.28;4404949;32;34694;-91
2022/04/21 09:38:34;;;;;;;;;;;;;;;17.16;29.52;99242.00;4408854;32;34144;-90
2022/04/21 09:41:07;;;;;;;;;;;;;;;17.42;28.91;99248.63;4390810;32;34596;-90
2022/04/21 09:43:37;;;;;;;;;;;;;;;17.26;29.18;99250.28;4388052;32;33354;-90
2022/04/21 09:46:10;;;;;;;;;;;;;;;17.30;30.03;99243.09;4391252;32;34197;-90
2022/04/21 09:48:39;;;;;;;;;;;;;;;17.31;29.75;99243.03;4404006;32;35009;-93
2022/04/21 09:51:11;;;;;;;;;;;;;;;17.37;29.62;99239.25;4408850;32;34474;-91
2022/04/21 09:53:48;;;;;;;;;;;;;;;17.34;29.56;99231.53;4403947;32;33401;-90
2022/04/21 09:56:17;;;;;;;;;;;;;;;17.25;28.77;99233.69;4402646;32;34875;-91
2022/04/21 09:58:46;;;;;;;;;;;;;;;17.63;28.34;99244.09;4403330;32;33739;-91
2022/04/21 10:01:15;;;;;;;;;;;;;;;17.64;27.82;99229.22;4403063;32;34026;-93
2022/04/21 10:03:44;;;;;;;;;;;;;;;17.21;27.25;99226.91;4403776;32;34173;-90
2022/04/21 10:06:14;;;;;;;;;;;;;;;17.12;28.61;99216.84;4408153;32;33869;-90
2022/04/21 10:08:43;;;;;;;;;;;;;;;17.46;30.03;99226.53;4399983;32;33474;-92
2022/04/21 10:11:12;;;;;;;;;;;;;;;17.55;29.85;99212.16;4403035;32;33816;-92
2022/04/21 10:13:40;;;;;;;;;;;;;;;17.92;28.42;99219.03;4403572;32;34248;-92
2022/04/21 10:16:09;;;;;;;;;;;;;;;17.91;28.44;99216.50;4403660;32;33889;-90
2022/04/21 10:18:38;;;;;;;;;;;;;;;17.95;27.37;99219.81;4394832;32;33142;-87
2022/04/21 10:21:06;;;;;;;;;;;;;;;18.01;27.37;99217.72;4403935;32;33967;-89
2022/04/21 10:23:36;;;;;;;;;;;;;;;17.91;27.54;99214.72;4404086;32;33310;-88
2022/04/21 10:26:04;;;;;;;;;;;;;;;17.88;26.42;99211.44;4403562;32;35637;-89
2022/04/21 10:28:55;;;;;;;;;;;;;;;17.92;28.90;99207.69;4403619;32;34748;-89
2022/04/21 10:31:31;;;;;;;;;;;;;;;17.70;28.60;99208.75;4403468;32;34712;-87
2022/04/21 10:34:01;;;;;;;;;;;;;;;18.07;30.04;99209.56;4408555;32;33418;-88
2022/04/21 10:36:33;;;;;;;;;;;;;;;18.15;26.03;99201.28;4403505;32;32660;-88
2022/04/21 10:39:20;;;;;;;;;;;;;;;18.10;27.51;99198.88;4403366;32;33333;-88
2022/04/21 10:41:54;;;;;;;;;;;;;;;18.36;26.84;99201.06;4403228;32;33983;-89
2022/04/21 10:44:26;;;;;;;;;;;;;;;18.25;25.74;99191.97;4403428;32;33005;-88
2022/04/21 10:47:10;;;;;;;;;;;;;;;17.98;27.07;99198.69;4403811;32;34197;-88
2022/04/21 10:49:54;;;;;;;;;;;;;;;17.94;27.71;99191.88;4406611;32;34174;-88
2022/04/21 10:58:27;;;;;;;;;;;;;;;18.01;26.11;99174.91;4403716;32;34819;-89
2022/04/21 11:01:08;;;;;;;;;;;;;;;18.20;27.23;99186.13;4400442;32;34551;-87
2022/04/21 11:03:37;;;;;;;;;;;;;;;18.64;26.88;99180.28;4403424;32;34042;-89
2022/04/21 11:06:06;;;;;;;;;;;;;;;18.27;26.93;99165.66;4404381;32;32961;-90
2022/04/21 11:08:34;;;;;;;;;;;;;;;18.53;27.44;99170.34;4404086;32;34359;-89
2022/04/21 11:11:03;;;;;;;;;;;;;;;18.53;28.45;99170.34;4408526;32;34649;-87
2022/04/21 11:13:42;;;;;;;;;;;;;;;18.89;27.47;99179.78;4406266;32;34517;-87
2022/04/21 11:16:12;;;;;;;;;;;;;;;18.93;25.67;99175.22;4404083;32;33748;-89
2022/04/21 11:18:41;;;;;;;;;;;;;;;18.81;25.83;99176.75;4404310;32;35010;-89
2022/04/21 11:21:22;;;;;;;;;;;;;;;18.92;26.45;99173.53;4404436;32;33721;-88
2022/04/21 11:24:00;;;;;;;;;;;;;;;18.96;26.80;99177.66;4403398;32;35077;-87
2022/04/21 11:26:29;;;;;;;;;;;;;;;18.82;26.54;99169.72;4403717;32;31660;-89
2022/04/21 11:29:20;;;;;;;;;;;;;;;18.54;27.72;99166.78;4405926;32;34587;-90
2022/04/21 11:31:49;;;;;;;;;;;;;;;18.49;27.95;99167.97;4398635;32;34192;-87
2022/04/21 11:34:21;;;;;;;;;;;;;;;18.82;27.43;99159.19;4400686;32;33071;-89
2022/04/21 11:36:50;;;;;;;;;;;;;;;18.73;28.58;99152.66;4402271;32;33393;-89
2022/04/21 11:39:19;;;;;;;;;;;;;;;19.03;29.23;99165.88;4401188;32;34511;-88
2022/04/21 11:41:48;;;;;;;;;;;;;;;19.22;26.43;99156.97;4390617;32;33759;-90
2022/04/21 11:44:20;;;;;;;;;;;;;;;19.14;26.77;99153.00;4384004;32;33901;-87
2022/04/21 11:46:50;;;;;;;;;;;;;;;19.16;26.74;99158.12;4405802;32;33980;-87
2022/04/21 11:49:19;;;;;;;;;;;;;;;19.34;26.19;99148.37;4402366;32;33539;-89
2022/04/21 11:51:52;;;;;;;;;;;;;;;19.88;25.59;99148.69;4401797;32;33964;-89
2022/04/21 11:54:21;;;;;;;;;;;;;;;19.91;23.33;99140.63;4400981;32;33796;-88
2022/04/21 11:56:49;;;;;;;;;;;;;;;19.85;25.39;99135.72;4408065;32;33492;-87
2022/04/21 11:59:18;;;;;;;;;;;;;;;20.13;24.74;99141.97;4403006;32;34518;-89
2022/04/21 12:07:22;;;;;;;;;;;;;;;20.33;25.20;99131.03;4402419;32;33266;-88
2022/04/21 12:09:51;;;;;;;;;;;;;;;20.57;24.41;99130.47;4402084;32;32315;-89
2022/04/21 12:12:20;;;;;;;;;;;;;;;20.66;24.25;99124.63;4406778;32;35040;-88
2022/04/21 12:14:49;;;;;;;;;;;;;;;20.16;23.94;99121.53;4401514;32;33883;-89
2022/04/21 12:17:20;;;;;;;;;;;;;;;20.55;23.94;99122.66;4402554;32;32798;-88
2022/04/21 12:19:49;;;;;;;;;;;;;;;21.06;24.05;99122.03;4402623;32;33139;-89
2022/04/21 12:22:19;;;;;;;;;;;;;;;20.96;23.88;99124.41;4403114;32;33020;-87
2022/04/21 12:24:48;;;;;;;;;;;;;;;21.25;22.87;99106.66;4402898;32;34434;-89
2022/04/21 12:27:17;;;;;;;;;;;;;;;21.29;24.02;99107.31;4407865;32;33298;-88
2022/04/21 12:29:46;;;;;;;;;;;;;;;21.22;23.64;99106.88;4402196;32;33828;-87
2022/04/21 12:32:19;;;;;;;;;;;;;;;21.28;23.98;99102.97;4402937;32;33980;-89
2022/04/21 12:34:48;;;;;;;;;;;;;;;21.19;23.28;99112.38;4403029;32;34916;-87
2022/04/21 12:37:22;;;;;;;;;;;;;;;21.42;23.57;99110.00;4403420;32;33037;-88
2022/04/21 12:39:50;;;;;;;;;;;;;;;21.53;23.75;99104.88;4402572;32;34119;-87
2022/04/21 12:42:40;;;;;;;;;;;;;;;21.74;23.63;99110.47;4393167;32;34240;-87
2022/04/21 12:45:09;;;;;;;;;;;;;;;21.70;23.04;99107.19;4388399;32;34163;-88
2022/04/21 12:47:42;;;;;;;;;;;;;;;21.59;23.24;99108.87;4397540;32;34223;-87
2022/04/21 12:50:12;;;;;;;;;;;;;;;21.70;23.50;99099.28;4403278;32;35571;-88
2022/04/21 12:52:43;;;;;;;;;;;;;;;21.06;23.72;99108.84;4402910;32;35209;-88
2022/04/21 12:55:12;;;;;;;;;;;;;;;21.18;23.89;99108.03;4407847;32;33283;-88
2022/04/21 12:57:41;;;;;;;;;;;;;;;21.57;23.28;99116.06;4401836;32;33960;-87
2022/04/21 13:00:10;;;;;;;;;;;;;;;22.16;22.71;99116.37;4402512;32;34189;-89
2022/04/21 13:02:38;;;;;;;;;;;;;;;22.28;22.67;99112.91;4402711;32;33850;-89
2022/04/21 13:05:07;;;;;;;;;;;;;;;22.45;21.79;99103.78;4401719;32;34075;-89
2022/04/21 13:07:36;;;;;;;;;;;;;;;22.49;22.47;99110.50;4407300;32;34050;-89
2022/04/21 13:10:06;;;;;;;;;;;;;;;22.25;22.13;99109.63;4403250;32;34595;-88
2022/04/21 13:12:35;;;;;;;;;;;;;;;22.67;21.46;99118.09;4403001;32;34681;-89
2022/04/21 13:15:04;;;;;;;;;;;;;;;22.79;20.63;99112.75;4403218;32;33674;-87
2022/04/21 13:17:32;;;;;;;;;;;;;;;22.87;21.22;99117.47;4402006;32;33740;-89
2022/04/21 13:20:01;;;;;;;;;;;;;;;22.89;20.85;99122.66;4403111;32;34817;-89
2022/04/21 13:22:29;;;;;;;;;;;;;;;22.75;20.61;99111.28;4407342;32;34136;-87
2022/04/21 13:25:03;;;;;;;;;;;;;;;22.52;21.66;99102.37;4401681;32;33993;-88
2022/04/21 13:27:33;;;;;;;;;;;;;;;22.93;21.39;99106.44;4401631;32;31789;-87
2022/04/21 13:30:05;;;;;;;;;;;;;;;23.25;21.48;99103.25;4401795;32;33686;-88
2022/04/21 13:35:22;;;;;;;;;;;;;;;23.41;20.34;99103.78;4387476;32;34655;-87
2022/04/21 13:37:51;;;;;;;;;;;;;;;23.72;21.54;99104.06;4392485;32;34112;-89
2022/04/21 13:40:20;;;;;;;;;;;;;;;23.80;20.61;99117.63;4391301;32;33934;-88
2022/04/21 13:42:50;;;;;;;;;;;;;;;23.48;20.39;99104.13;4403032;32;34140;-88
2022/04/21 13:45:18;;;;;;;;;;;;;;;23.39;20.72;99105.69;4402562;32;34668;-87
2022/04/21 13:48:01;;;;;;;;;;;;;;;23.56;20.94;99098.28;4401968;32;33441;-88
2022/04/21 13:50:29;;;;;;;;;;;;;;;23.98;20.65;99111.84;4407097;32;34082;-88
2022/04/21 13:52:58;;;;;;;;;;;;;;;23.85;20.15;99110.16;4389087;32;32766;-88
2022/04/21 13:55:27;;;;;;;;;;;;;;;24.13;20.73;99104.50;4402774;32;34443;-88
2022/04/21 13:57:57;;;;;;;;;;;;;;;24.34;20.31;99101.97;4401650;32;33305;-89